sensor_id;sensor_type;location;lat;lon;timestamp;P1;durP1;ratioP1;P2;durP2;ratioP2
4244;SDS011;2136;48.502;9.194;2023-03-16T00:01:57;12.63;;;6.20;;
4244;SDS011;2136;48.502;9.194;2023-03-16T00:04:24;10.80;;;6.40;;
4244;SDS011;2136;48.502;9.194;2023-03-16T00:09:50;8.20;;;6.13;;
4244;SDS011;2136;48.502;9.194;2023-03-16T00:12:17;13.13;;;6.40;;
4244;SDS011;2136;48.502;9.194;2023-03-16T00:14:45;11.05;;;6.30;;
4244;SDS011;2136;48.502;9.194;2023-03-16T00:17:13;8.20;;;5.43;;
4244;SDS011;2136;48.502;9.194;2023-03-16T00:22:32;9.67;;;5.57;;
4244;SDS011;2136;48.502;9.194;2023-03-16T00:25:01;8.63;;;6.40;;
4244;SDS011;2136;48.502;9.194;2023-03-16T00:27:28;11.13;;;5.22;;
4244;SDS011;2136;48.502;9.194;2023-03-16T00:29:55;5.90;;;5.30;;
4244;SDS011;2136;48.502;9.194;2023-03-16T00:32:23;7.40;;;5.32;;
4244;SDS011;2136;48.502;9.194;2023-03-16T00:34:52;8.70;;;5.70;;
4244;SDS011;2136;48.502;9.194;2023-03-16T00:37:20;8.63;;;5.35;;
4244;SDS011;2136;48.502;9.194;2023-03-16T00:39:48;11.97;;;5.10;;
4244;SDS011;2136;48.502;9.194;2023-03-16T00:42:17;7.10;;;4.93;;
4244;SDS011;2136;48.502;9.194;2023-03-16T00:44:45;9.70;;;7.33;;
4244;SDS011;2136;48.502;9.194;2023-03-16T00:47:12;6.10;;;5.32;;
4244;SDS011;2136;48.502;9.194;2023-03-16T00:49:40;6.30;;;5.20;;
4244;SDS011;2136;48.502;9.194;2023-03-16T00:52:08;6.65;;;4.90;;
4244;SDS011;2136;48.502;9.194;2023-03-16T00:54:38;8.65;;;5.78;;
4244;SDS011;2136;48.502;9.194;2023-03-16T00:57:08;9.90;;;5.50;;
4244;SDS011;2136;48.502;9.194;2023-03-16T00:59:37;9.23;;;5.80;;
4244;SDS011;2136;48.502;9.194;2023-03-16T01:02:05;8.33;;;5.20;;
4244;SDS011;2136;48.502;9.194;2023-03-16T01:04:33;11.95;;;6.53;;
4244;SDS011;2136;48.502;9.194;2023-03-16T01:07:01;6.97;;;5.83;;
4244;SDS011;2136;48.502;9.194;2023-03-16T01:09:28;10.57;;;6.50;;
4244;SDS011;2136;48.502;9.194;2023-03-16T01:11:54;11.90;;;6.90;;
4244;SDS011;2136;48.502;9.194;2023-03-16T01:14:21;8.40;;;6.50;;
4244;SDS011;2136;48.502;9.194;2023-03-16T01:16:49;16.17;;;6.40;;
4244;SDS011;2136;48.502;9.194;2023-03-16T01:19:16;8.20;;;6.40;;
4244;SDS011;2136;48.502;9.194;2023-03-16T01:21:43;9.82;;;6.30;;
4244;SDS011;2136;48.502;9.194;2023-03-16T01:24:10;9.50;;;6.60;;
4244;SDS011;2136;48.502;9.194;2023-03-16T01:26:37;8.73;;;6.27;;
4244;SDS011;2136;48.502;9.194;2023-03-16T01:29:04;15.00;;;7.47;;
4244;SDS011;2136;48.502;9.194;2023-03-16T01:31:31;10.45;;;7.93;;
4244;SDS011;2136;48.502;9.194;2023-03-16T01:33:59;11.40;;;8.40;;
4244;SDS011;2136;48.502;9.194;2023-03-16T01:36:28;9.30;;;7.77;;
4244;SDS011;2136;48.502;9.194;2023-03-16T01:38:55;11.90;;;8.17;;
4244;SDS011;2136;48.502;9.194;2023-03-16T01:41:22;9.60;;;7.57;;
4244;SDS011;2136;48.502;9.194;2023-03-16T01:43:49;12.83;;;8.20;;
4244;SDS011;2136;48.502;9.194;2023-03-16T01:46:19;10.73;;;7.83;;
4244;SDS011;2136;48.502;9.194;2023-03-16T01:48:56;15.13;;;8.15;;
4244;SDS011;2136;48.502;9.194;2023-03-16T01:51:30;12.33;;;8.07;;
4244;SDS011;2136;48.502;9.194;2023-03-16T01:54:02;13.27;;;7.27;;
4244;SDS011;2136;48.502;9.194;2023-03-16T01:56:34;13.15;;;8.68;;
4244;SDS011;2136;48.502;9.194;2023-03-16T01:59:06;11.32;;;7.93;;
4244;SDS011;2136;48.502;9.194;2023-03-16T02:01:36;10.20;;;7.63;;
4244;SDS011;2136;48.502;9.194;2023-03-16T02:04:07;9.07;;;7.37;;
4244;SDS011;2136;48.502;9.194;2023-03-16T02:06:42;9.87;;;7.50;;
4244;SDS011;2136;48.502;9.194;2023-03-16T02:09:09;9.23;;;6.77;;
4244;SDS011;2136;48.502;9.194;2023-03-16T02:11:37;10.57;;;7.90;;
4244;SDS011;2136;48.502;9.194;2023-03-16T02:14:05;13.23;;;7.70;;
4244;SDS011;2136;48.502;9.194;2023-03-16T02:16:34;8.93;;;7.10;;
4244;SDS011;2136;48.502;9.194;2023-03-16T02:19:01;8.67;;;5.30;;
4244;SDS011;2136;48.502;9.194;2023-03-16T02:21:35;7.57;;;5.73;;
4244;SDS011;2136;48.502;9.194;2023-03-16T02:24:11;8.90;;;6.23;;
4244;SDS011;2136;48.502;9.194;2023-03-16T02:26:40;8.27;;;5.87;;
4244;SDS011;2136;48.502;9.194;2023-03-16T02:29:15;8.85;;;6.53;;
4244;SDS011;2136;48.502;9.194;2023-03-16T02:31:51;7.70;;;5.72;;
4244;SDS011;2136;48.502;9.194;2023-03-16T02:34:19;11.60;;;6.18;;
4244;SDS011;2136;48.502;9.194;2023-03-16T02:36:46;10.73;;;6.70;;
4244;SDS011;2136;48.502;9.194;2023-03-16T02:39:16;9.55;;;5.88;;
4244;SDS011;2136;48.502;9.194;2023-03-16T02:41:43;13.65;;;5.50;;
4244;SDS011;2136;48.502;9.194;2023-03-16T02:44:11;10.30;;;6.45;;
4244;SDS011;2136;48.502;9.194;2023-03-16T02:46:41;8.85;;;5.80;;
4244;SDS011;2136;48.502;9.194;2023-03-16T02:49:12;10.40;;;7.15;;
4244;SDS011;2136;48.502;9.194;2023-03-16T02:51:42;9.63;;;6.05;;
4244;SDS011;2136;48.502;9.194;2023-03-16T02:54:10;10.55;;;6.32;;
4244;SDS011;2136;48.502;9.194;2023-03-16T02:56:37;7.97;;;5.97;;
4244;SDS011;2136;48.502;9.194;2023-03-16T02:59:04;7.55;;;6.70;;
4244;SDS011;2136;48.502;9.194;2023-03-16T03:01:31;13.68;;;7.47;;
4244;SDS011;2136;48.502;9.194;2023-03-16T03:03:59;9.43;;;7.57;;
4244;SDS011;2136;48.502;9.194;2023-03-16T03:06:27;13.52;;;7.68;;
4244;SDS011;2136;48.502;9.194;2023-03-16T03:08:54;9.70;;;7.60;;
4244;SDS011;2136;48.502;9.194;2023-03-16T03:11:21;13.27;;;8.82;;
4244;SDS011;2136;48.502;9.194;2023-03-16T03:13:48;10.95;;;8.15;;
4244;SDS011;2136;48.502;9.194;2023-03-16T03:16:15;10.20;;;8.05;;
4244;SDS011;2136;48.502;9.194;2023-03-16T03:18:42;9.55;;;7.15;;
4244;SDS011;2136;48.502;9.194;2023-03-16T03:21:09;12.75;;;8.23;;
4244;SDS011;2136;48.502;9.194;2023-03-16T03:23:37;11.25;;;9.10;;
4244;SDS011;2136;48.502;9.194;2023-03-16T03:26:04;13.95;;;9.07;;
4244;SDS011;2136;48.502;9.194;2023-03-16T03:28:31;13.38;;;8.68;;
4244;SDS011;2136;48.502;9.194;2023-03-16T03:30:58;12.00;;;7.75;;
4244;SDS011;2136;48.502;9.194;2023-03-16T03:33:26;11.50;;;8.40;;
4244;SDS011;2136;48.502;9.194;2023-03-16T03:35:53;11.80;;;8.18;;
4244;SDS011;2136;48.502;9.194;2023-03-16T03:38:21;11.65;;;8.60;;
4244;SDS011;2136;48.502;9.194;2023-03-16T03:40:50;11.55;;;9.25;;
4244;SDS011;2136;48.502;9.194;2023-03-16T03:43:17;12.57;;;8.90;;
4244;SDS011;2136;48.502;9.194;2023-03-16T03:45:44;16.20;;;10.25;;
4244;SDS011;2136;48.502;9.194;2023-03-16T03:48:11;14.55;;;9.07;;
4244;SDS011;2136;48.502;9.194;2023-03-16T03:50:38;15.60;;;8.68;;
4244;SDS011;2136;48.502;9.194;2023-03-16T03:53:05;9.55;;;8.50;;
4244;SDS011;2136;48.502;9.194;2023-03-16T03:55:31;12.23;;;8.52;;
4244;SDS011;2136;48.502;9.194;2023-03-16T03:58:00;11.85;;;9.50;;
4244;SDS011;2136;48.502;9.194;2023-03-16T04:00:26;12.18;;;9.00;;
4244;SDS011;2136;48.502;9.194;2023-03-16T04:02:53;10.88;;;8.40;;
4244;SDS011;2136;48.502;9.194;2023-03-16T04:05:20;12.88;;;9.95;;
4244;SDS011;2136;48.502;9.194;2023-03-16T04:07:49;17.05;;;10.15;;
4244;SDS011;2136;48.502;9.194;2023-03-16T04:10:19;13.25;;;8.90;;
4244;SDS011;2136;48.502;9.194;2023-03-16T04:12:46;9.68;;;8.30;;
4244;SDS011;2136;48.502;9.194;2023-03-16T04:15:14;12.05;;;8.68;;
4244;SDS011;2136;48.502;9.194;2023-03-16T04:17:41;9.43;;;7.68;;
4244;SDS011;2136;48.502;9.194;2023-03-16T04:20:08;9.65;;;8.32;;
4244;SDS011;2136;48.502;9.194;2023-03-16T04:22:43;9.05;;;8.15;;
4244;SDS011;2136;48.502;9.194;2023-03-16T04:25:10;10.82;;;8.55;;
4244;SDS011;2136;48.502;9.194;2023-03-16T04:27:39;12.40;;;8.18;;
4244;SDS011;2136;48.502;9.194;2023-03-16T04:30:06;10.27;;;8.00;;
4244;SDS011;2136;48.502;9.194;2023-03-16T04:32:37;10.18;;;8.60;;
4244;SDS011;2136;48.502;9.194;2023-03-16T04:35:04;13.52;;;9.02;;
4244;SDS011;2136;48.502;9.194;2023-03-16T04:37:31;11.00;;;8.85;;
4244;SDS011;2136;48.502;9.194;2023-03-16T04:39:59;9.43;;;8.38;;
4244;SDS011;2136;48.502;9.194;2023-03-16T04:42:33;11.18;;;7.45;;
4244;SDS011;2136;48.502;9.194;2023-03-16T04:45:01;12.40;;;8.98;;
4244;SDS011;2136;48.502;9.194;2023-03-16T04:47:27;9.90;;;7.78;;
4244;SDS011;2136;48.502;9.194;2023-03-16T04:49:59;19.00;;;7.20;;
4244;SDS011;2136;48.502;9.194;2023-03-16T04:52:26;21.63;;;8.05;;
4244;SDS011;2136;48.502;9.194;2023-03-16T04:54:53;24.52;;;8.05;;
4244;SDS011;2136;48.502;9.194;2023-03-16T04:57:20;10.02;;;7.50;;
4244;SDS011;2136;48.502;9.194;2023-03-16T04:59:47;26.80;;;7.22;;
4244;SDS011;2136;48.502;9.194;2023-03-16T05:02:14;23.35;;;8.57;;
4244;SDS011;2136;48.502;9.194;2023-03-16T05:04:41;31.67;;;8.02;;
4244;SDS011;2136;48.502;9.194;2023-03-16T05:07:10;56.45;;;10.38;;
4244;SDS011;2136;48.502;9.194;2023-03-16T05:09:37;31.00;;;8.80;;
4244;SDS011;2136;48.502;9.194;2023-03-16T05:12:04;58.13;;;10.15;;
4244;SDS011;2136;48.502;9.194;2023-03-16T05:14:31;62.80;;;9.00;;
4244;SDS011;2136;48.502;9.194;2023-03-16T05:17:00;29.55;;;9.07;;
4244;SDS011;2136;48.502;9.194;2023-03-16T05:19:27;28.25;;;8.60;;
4244;SDS011;2136;48.502;9.194;2023-03-16T05:21:55;29.60;;;7.43;;
4244;SDS011;2136;48.502;9.194;2023-03-16T05:24:23;34.40;;;8.30;;
4244;SDS011;2136;48.502;9.194;2023-03-16T05:26:50;20.75;;;7.85;;
4244;SDS011;2136;48.502;9.194;2023-03-16T05:29:17;34.55;;;8.90;;
4244;SDS011;2136;48.502;9.194;2023-03-16T05:31:44;29.45;;;8.20;;
4244;SDS011;2136;48.502;9.194;2023-03-16T05:34:12;27.40;;;9.15;;
4244;SDS011;2136;48.502;9.194;2023-03-16T05:36:39;32.75;;;7.90;;
4244;SDS011;2136;48.502;9.194;2023-03-16T05:39:09;56.72;;;9.45;;
4244;SDS011;2136;48.502;9.194;2023-03-16T05:41:37;44.03;;;8.75;;
4244;SDS011;2136;48.502;9.194;2023-03-16T05:44:04;48.22;;;9.88;;
4244;SDS011;2136;48.502;9.194;2023-03-16T05:46:31;63.00;;;9.88;;
4244;SDS011;2136;48.502;9.194;2023-03-16T05:48:58;64.28;;;10.60;;
4244;SDS011;2136;48.502;9.194;2023-03-16T05:51:25;38.22;;;9.48;;
4244;SDS011;2136;48.502;9.194;2023-03-16T05:53:52;12.70;;;10.15;;
4244;SDS011;2136;48.502;9.194;2023-03-16T05:56:22;12.98;;;8.80;;
4244;SDS011;2136;48.502;9.194;2023-03-16T05:58:51;30.27;;;8.52;;
4244;SDS011;2136;48.502;9.194;2023-03-16T06:01:18;13.48;;;8.90;;
4244;SDS011;2136;48.502;9.194;2023-03-16T06:03:45;16.73;;;8.80;;
4244;SDS011;2136;48.502;9.194;2023-03-16T06:06:14;24.27;;;9.27;;
4244;SDS011;2136;48.502;9.194;2023-03-16T06:08:41;14.25;;;8.32;;
4244;SDS011;2136;48.502;9.194;2023-03-16T06:11:08;15.95;;;8.07;;
4244;SDS011;2136;48.502;9.194;2023-03-16T06:13:35;12.68;;;8.93;;
4244;SDS011;2136;48.502;9.194;2023-03-16T06:16:04;11.05;;;9.48;;
4244;SDS011;2136;48.502;9.194;2023-03-16T06:18:31;27.02;;;9.20;;
4244;SDS011;2136;48.502;9.194;2023-03-16T06:20:58;22.00;;;7.88;;
4244;SDS011;2136;48.502;9.194;2023-03-16T06:23:26;22.90;;;8.40;;
4244;SDS011;2136;48.502;9.194;2023-03-16T06:25:52;18.27;;;9.88;;
4244;SDS011;2136;48.502;9.194;2023-03-16T06:28:19;39.88;;;8.65;;
4244;SDS011;2136;48.502;9.194;2023-03-16T06:30:47;31.42;;;9.10;;
4244;SDS011;2136;48.502;9.194;2023-03-16T06:33:15;23.00;;;8.50;;
4244;SDS011;2136;48.502;9.194;2023-03-16T06:35:41;13.80;;;7.97;;
4244;SDS011;2136;48.502;9.194;2023-03-16T06:38:08;29.52;;;9.48;;
4244;SDS011;2136;48.502;9.194;2023-03-16T06:40:35;20.55;;;8.98;;
4244;SDS011;2136;48.502;9.194;2023-03-16T06:43:02;36.63;;;9.30;;
4244;SDS011;2136;48.502;9.194;2023-03-16T06:45:30;44.00;;;9.65;;
4244;SDS011;2136;48.502;9.194;2023-03-16T06:47:57;21.13;;;10.30;;
4244;SDS011;2136;48.502;9.194;2023-03-16T06:50:26;28.05;;;8.52;;
4244;SDS011;2136;48.502;9.194;2023-03-16T06:52:53;48.15;;;9.45;;
4244;SDS011;2136;48.502;9.194;2023-03-16T06:55:20;24.02;;;8.88;;
4244;SDS011;2136;48.502;9.194;2023-03-16T06:57:47;21.85;;;9.18;;
4244;SDS011;2136;48.502;9.194;2023-03-16T07:00:14;41.28;;;8.27;;
4244;SDS011;2136;48.502;9.194;2023-03-16T07:02:41;18.58;;;9.25;;
4244;SDS011;2136;48.502;9.194;2023-03-16T07:05:08;29.33;;;9.27;;
4244;SDS011;2136;48.502;9.194;2023-03-16T07:07:38;27.27;;;10.77;;
4244;SDS011;2136;48.502;9.194;2023-03-16T07:10:06;17.23;;;10.02;;
4244;SDS011;2136;48.502;9.194;2023-03-16T07:12:35;26.33;;;9.68;;
4244;SDS011;2136;48.502;9.194;2023-03-16T07:15:02;25.73;;;10.40;;
4244;SDS011;2136;48.502;9.194;2023-03-16T07:17:29;11.75;;;10.15;;
4244;SDS011;2136;48.502;9.194;2023-03-16T07:19:57;11.57;;;8.95;;
4244;SDS011;2136;48.502;9.194;2023-03-16T07:22:23;28.77;;;9.95;;
4244;SDS011;2136;48.502;9.194;2023-03-16T07:24:52;19.15;;;9.55;;
4244;SDS011;2136;48.502;9.194;2023-03-16T07:27:21;16.50;;;9.90;;
4244;SDS011;2136;48.502;9.194;2023-03-16T07:29:48;40.13;;;11.95;;
4244;SDS011;2136;48.502;9.194;2023-03-16T07:32:16;22.63;;;10.25;;
4244;SDS011;2136;48.502;9.194;2023-03-16T07:34:43;28.60;;;11.52;;
4244;SDS011;2136;48.502;9.194;2023-03-16T07:37:10;26.73;;;10.90;;
4244;SDS011;2136;48.502;9.194;2023-03-16T07:39:37;19.17;;;12.55;;
4244;SDS011;2136;48.502;9.194;2023-03-16T07:42:05;36.40;;;12.10;;
4244;SDS011;2136;48.502;9.194;2023-03-16T07:44:32;22.60;;;10.80;;
4244;SDS011;2136;48.502;9.194;2023-03-16T07:46:59;19.05;;;11.05;;
4244;SDS011;2136;48.502;9.194;2023-03-16T07:49:26;17.87;;;12.07;;
4244;SDS011;2136;48.502;9.194;2023-03-16T07:51:53;20.27;;;11.05;;
4244;SDS011;2136;48.502;9.194;2023-03-16T07:54:20;28.50;;;11.20;;
4244;SDS011;2136;48.502;9.194;2023-03-16T07:56:48;21.60;;;11.70;;
4244;SDS011;2136;48.502;9.194;2023-03-16T07:59:16;15.97;;;10.63;;
4244;SDS011;2136;48.502;9.194;2023-03-16T08:01:45;15.93;;;10.37;;
4244;SDS011;2136;48.502;9.194;2023-03-16T08:04:12;15.70;;;10.33;;
4244;SDS011;2136;48.502;9.194;2023-03-16T08:06:38;17.03;;;10.30;;
4244;SDS011;2136;48.502;9.194;2023-03-16T08:09:06;19.93;;;11.27;;
4244;SDS011;2136;48.502;9.194;2023-03-16T08:11:33;19.00;;;11.40;;
4244;SDS011;2136;48.502;9.194;2023-03-16T08:14:00;18.37;;;11.00;;
4244;SDS011;2136;48.502;9.194;2023-03-16T08:16:28;15.60;;;11.40;;
4244;SDS011;2136;48.502;9.194;2023-03-16T08:18:55;16.83;;;12.40;;
4244;SDS011;2136;48.502;9.194;2023-03-16T08:21:23;17.13;;;11.80;;
4244;SDS011;2136;48.502;9.194;2023-03-16T08:23:50;16.20;;;12.00;;
4244;SDS011;2136;48.502;9.194;2023-03-16T08:26:17;13.20;;;10.60;;
4244;SDS011;2136;48.502;9.194;2023-03-16T08:28:45;17.43;;;11.10;;
4244;SDS011;2136;48.502;9.194;2023-03-16T08:31:16;15.10;;;11.43;;
4244;SDS011;2136;48.502;9.194;2023-03-16T08:33:45;10.57;;;9.23;;
4244;SDS011;2136;48.502;9.194;2023-03-16T08:36:14;12.33;;;9.67;;
4244;SDS011;2136;48.502;9.194;2023-03-16T08:38:42;13.50;;;9.83;;
4244;SDS011;2136;48.502;9.194;2023-03-16T08:41:10;12.30;;;9.60;;
4244;SDS011;2136;48.502;9.194;2023-03-16T08:43:38;12.80;;;9.93;;
4244;SDS011;2136;48.502;9.194;2023-03-16T08:46:04;10.37;;;8.93;;
4244;SDS011;2136;48.502;9.194;2023-03-16T08:48:31;11.93;;;8.97;;
4244;SDS011;2136;48.502;9.194;2023-03-16T08:51:01;11.53;;;8.63;;
4244;SDS011;2136;48.502;9.194;2023-03-16T08:53:30;10.13;;;8.40;;
4244;SDS011;2136;48.502;9.194;2023-03-16T08:56:00;10.80;;;7.80;;
4244;SDS011;2136;48.502;9.194;2023-03-16T08:58:29;9.03;;;8.00;;
4244;SDS011;2136;48.502;9.194;2023-03-16T09:00:56;9.17;;;8.00;;
4244;SDS011;2136;48.502;9.194;2023-03-16T09:03:24;7.10;;;6.40;;
4244;SDS011;2136;48.502;9.194;2023-03-16T09:05:51;9.10;;;7.53;;
4244;SDS011;2136;48.502;9.194;2023-03-16T09:08:19;7.40;;;6.70;;
4244;SDS011;2136;48.502;9.194;2023-03-16T09:10:46;9.07;;;8.17;;
4244;SDS011;2136;48.502;9.194;2023-03-16T09:13:14;8.70;;;7.23;;
4244;SDS011;2136;48.502;9.194;2023-03-16T09:15:41;8.57;;;7.40;;
4244;SDS011;2136;48.502;9.194;2023-03-16T09:18:08;8.50;;;7.70;;
4244;SDS011;2136;48.502;9.194;2023-03-16T09:20:35;9.00;;;7.80;;
4244;SDS011;2136;48.502;9.194;2023-03-16T09:23:02;8.43;;;7.53;;
4244;SDS011;2136;48.502;9.194;2023-03-16T09:25:30;11.10;;;7.90;;
4244;SDS011;2136;48.502;9.194;2023-03-16T09:27:57;7.93;;;7.23;;
4244;SDS011;2136;48.502;9.194;2023-03-16T09:30:24;8.23;;;7.20;;
4244;SDS011;2136;48.502;9.194;2023-03-16T09:32:52;7.80;;;7.07;;
4244;SDS011;2136;48.502;9.194;2023-03-16T09:35:20;6.97;;;6.40;;
4244;SDS011;2136;48.502;9.194;2023-03-16T09:37:46;7.00;;;6.20;;
4244;SDS011;2136;48.502;9.194;2023-03-16T09:40:18;6.63;;;5.77;;
4244;SDS011;2136;48.502;9.194;2023-03-16T09:42:52;6.77;;;6.10;;
4244;SDS011;2136;48.502;9.194;2023-03-16T09:45:34;8.57;;;5.87;;
4244;SDS011;2136;48.502;9.194;2023-03-16T09:48:07;6.73;;;4.97;;
4244;SDS011;2136;48.502;9.194;2023-03-16T09:50:36;6.10;;;5.23;;
4244;SDS011;2136;48.502;9.194;2023-03-16T09:53:07;8.27;;;6.13;;
4244;SDS011;2136;48.502;9.194;2023-03-16T09:55:40;7.20;;;5.60;;
4244;SDS011;2136;48.502;9.194;2023-03-16T09:58:12;5.60;;;5.00;;
4244;SDS011;2136;48.502;9.194;2023-03-16T10:00:44;5.53;;;3.70;;
4244;SDS011;2136;48.502;9.194;2023-03-16T10:03:19;2.80;;;2.17;;
4244;SDS011;2136;48.502;9.194;2023-03-16T10:05:56;3.73;;;1.80;;
4244;SDS011;2136;48.502;9.194;2023-03-16T10:08:26;2.77;;;2.27;;
4244;SDS011;2136;48.502;9.194;2023-03-16T10:11:03;2.43;;;1.70;;
4244;SDS011;2136;48.502;9.194;2023-03-16T10:13:38;4.50;;;1.70;;
4244;SDS011;2136;48.502;9.194;2023-03-16T10:16:10;3.70;;;1.60;;
4244;SDS011;2136;48.502;9.194;2023-03-16T10:18:40;1.87;;;1.60;;
4244;SDS011;2136;48.502;9.194;2023-03-16T10:21:10;4.70;;;1.60;;
4244;SDS011;2136;48.502;9.194;2023-03-16T10:23:39;1.70;;;1.60;;
4244;SDS011;2136;48.502;9.194;2023-03-16T10:26:09;3.10;;;1.70;;
4244;SDS011;2136;48.502;9.194;2023-03-16T10:28:40;2.33;;;2.13;;
4244;SDS011;2136;48.502;9.194;2023-03-16T10:31:09;1.90;;;1.47;;
4244;SDS011;2136;48.502;9.194;2023-03-16T10:33:38;2.67;;;1.80;;
4244;SDS011;2136;48.502;9.194;2023-03-16T10:36:09;3.13;;;2.13;;
4244;SDS011;2136;48.502;9.194;2023-03-16T10:38:40;1.60;;;1.50;;
4244;SDS011;2136;48.502;9.194;2023-03-16T10:41:21;2.13;;;1.43;;
4244;SDS011;2136;48.502;9.194;2023-03-16T10:43:53;1.70;;;1.40;;
4244;SDS011;2136;48.502;9.194;2023-03-16T10:46:22;3.80;;;1.80;;
4244;SDS011;2136;48.502;9.194;2023-03-16T10:48:52;2.83;;;1.90;;
4244;SDS011;2136;48.502;9.194;2023-03-16T10:51:24;2.57;;;1.47;;
4244;SDS011;2136;48.502;9.194;2023-03-16T10:53:55;2.20;;;1.67;;
4244;SDS011;2136;48.502;9.194;2023-03-16T10:56:30;1.60;;;1.50;;
4244;SDS011;2136;48.502;9.194;2023-03-16T10:59:00;1.97;;;1.40;;
4244;SDS011;2136;48.502;9.194;2023-03-16T11:01:37;1.60;;;1.50;;
4244;SDS011;2136;48.502;9.194;2023-03-16T11:04:10;1.87;;;1.77;;
4244;SDS011;2136;48.502;9.194;2023-03-16T11:06:45;1.70;;;1.60;;
4244;SDS011;2136;48.502;9.194;2023-03-16T11:09:19;1.50;;;1.40;;
4244;SDS011;2136;48.502;9.194;2023-03-16T11:11:50;2.20;;;1.60;;
4244;SDS011;2136;48.502;9.194;2023-03-16T11:14:24;1.70;;;1.60;;
4244;SDS011;2136;48.502;9.194;2023-03-16T11:16:56;1.90;;;1.57;;
4244;SDS011;2136;48.502;9.194;2023-03-16T11:19:28;2.07;;;1.70;;
4244;SDS011;2136;48.502;9.194;2023-03-16T11:21:59;1.13;;;1.13;;
4244;SDS011;2136;48.502;9.194;2023-03-16T11:24:31;1.67;;;1.57;;
4244;SDS011;2136;48.502;9.194;2023-03-16T11:27:03;1.83;;;1.73;;
4244;SDS011;2136;48.502;9.194;2023-03-16T11:29:42;2.30;;;2.20;;
4244;SDS011;2136;48.502;9.194;2023-03-16T11:32:21;2.13;;;1.90;;
4244;SDS011;2136;48.502;9.194;2023-03-16T11:34:51;1.73;;;1.63;;
4244;SDS011;2136;48.502;9.194;2023-03-16T11:37:22;2.07;;;1.77;;
4244;SDS011;2136;48.502;9.194;2023-03-16T11:40:01;4.10;;;2.20;;
4244;SDS011;2136;48.502;9.194;2023-03-16T11:42:41;1.97;;;1.70;;
4244;SDS011;2136;48.502;9.194;2023-03-16T11:45:20;2.47;;;2.27;;
4244;SDS011;2136;48.502;9.194;2023-03-16T11:50:47;2.10;;;1.83;;
4244;SDS011;2136;48.502;9.194;2023-03-16T11:53:25;2.43;;;2.23;;
4244;SDS011;2136;48.502;9.194;2023-03-16T11:56:01;2.20;;;2.00;;
4244;SDS011;2136;48.502;9.194;2023-03-16T11:58:41;2.37;;;2.17;;
4244;SDS011;2136;48.502;9.194;2023-03-16T12:01:18;1.97;;;1.87;;
4244;SDS011;2136;48.502;9.194;2023-03-16T12:06:45;3.00;;;2.27;;
4244;SDS011;2136;48.502;9.194;2023-03-16T12:09:44;4.43;;;2.40;;
4244;SDS011;2136;48.502;9.194;2023-03-16T12:12:32;2.60;;;2.40;;
4244;SDS011;2136;48.502;9.194;2023-03-16T12:15:12;3.30;;;2.57;;
4244;SDS011;2136;48.502;9.194;2023-03-16T12:17:49;2.60;;;2.40;;
4244;SDS011;2136;48.502;9.194;2023-03-16T12:20:22;2.53;;;2.33;;
4244;SDS011;2136;48.502;9.194;2023-03-16T12:22:52;3.80;;;2.37;;
4244;SDS011;2136;48.502;9.194;2023-03-16T12:25:25;4.47;;;2.50;;
4244;SDS011;2136;48.502;9.194;2023-03-16T12:27:56;5.37;;;2.30;;
4244;SDS011;2136;48.502;9.194;2023-03-16T12:30:32;2.37;;;2.17;;
4244;SDS011;2136;48.502;9.194;2023-03-16T12:33:09;2.70;;;2.27;;
4244;SDS011;2136;48.502;9.194;2023-03-16T12:35:43;2.30;;;2.10;;
4244;SDS011;2136;48.502;9.194;2023-03-16T12:38:21;1.73;;;1.63;;
4244;SDS011;2136;48.502;9.194;2023-03-16T12:41:01;3.80;;;2.10;;
4244;SDS011;2136;48.502;9.194;2023-03-16T12:43:41;2.07;;;1.97;;
4244;SDS011;2136;48.502;9.194;2023-03-16T12:46:20;2.10;;;2.00;;
4244;SDS011;2136;48.502;9.194;2023-03-16T12:48:54;2.07;;;1.87;;
4244;SDS011;2136;48.502;9.194;2023-03-16T12:51:31;3.97;;;1.87;;
4244;SDS011;2136;48.502;9.194;2023-03-16T12:53:59;3.07;;;2.10;;
4244;SDS011;2136;48.502;9.194;2023-03-16T12:56:28;3.43;;;2.20;;
4244;SDS011;2136;48.502;9.194;2023-03-16T12:58:56;2.77;;;1.83;;
4244;SDS011;2136;48.502;9.194;2023-03-16T13:01:25;2.97;;;2.10;;
4244;SDS011;2136;48.502;9.194;2023-03-16T13:03:59;2.00;;;1.80;;
4244;SDS011;2136;48.502;9.194;2023-03-16T13:06:30;2.27;;;2.10;;
4244;SDS011;2136;48.502;9.194;2023-03-16T13:08:59;1.60;;;1.50;;
4244;SDS011;2136;48.502;9.194;2023-03-16T13:11:38;2.83;;;2.03;;
4244;SDS011;2136;48.502;9.194;2023-03-16T13:14:08;1.63;;;1.53;;
4244;SDS011;2136;48.502;9.194;2023-03-16T13:16:41;2.47;;;1.60;;
4244;SDS011;2136;48.502;9.194;2023-03-16T13:19:20;2.83;;;1.90;;
4244;SDS011;2136;48.502;9.194;2023-03-16T13:21:59;1.70;;;1.50;;
4244;SDS011;2136;48.502;9.194;2023-03-16T13:24:34;1.80;;;1.70;;
4244;SDS011;2136;48.502;9.194;2023-03-16T13:27:05;2.10;;;1.90;;
4244;SDS011;2136;48.502;9.194;2023-03-16T13:29:50;3.50;;;1.80;;
4244;SDS011;2136;48.502;9.194;2023-03-16T13:32:19;2.70;;;1.73;;
4244;SDS011;2136;48.502;9.194;2023-03-16T13:34:49;4.20;;;2.10;;
4244;SDS011;2136;48.502;9.194;2023-03-16T13:37:19;5.30;;;2.10;;
4244;SDS011;2136;48.502;9.194;2023-03-16T13:39:51;2.00;;;1.60;;
4244;SDS011;2136;48.502;9.194;2023-03-16T13:42:19;2.80;;;2.03;;
4244;SDS011;2136;48.502;9.194;2023-03-16T13:44:47;1.43;;;1.33;;
4244;SDS011;2136;48.502;9.194;2023-03-16T13:47:18;1.70;;;1.60;;
4244;SDS011;2136;48.502;9.194;2023-03-16T13:49:46;1.93;;;1.70;;
4244;SDS011;2136;48.502;9.194;2023-03-16T13:52:17;2.73;;;1.90;;
4244;SDS011;2136;48.502;9.194;2023-03-16T13:54:49;2.00;;;1.80;;
4244;SDS011;2136;48.502;9.194;2023-03-16T13:57:17;1.40;;;1.30;;
4244;SDS011;2136;48.502;9.194;2023-03-16T13:59:47;5.70;;;2.87;;
4244;SDS011;2136;48.502;9.194;2023-03-16T14:02:15;2.10;;;1.90;;
4244;SDS011;2136;48.502;9.194;2023-03-16T14:04:44;2.00;;;1.90;;
4244;SDS011;2136;48.502;9.194;2023-03-16T14:07:13;4.90;;;1.90;;
4244;SDS011;2136;48.502;9.194;2023-03-16T14:09:43;4.07;;;2.30;;
4244;SDS011;2136;48.502;9.194;2023-03-16T14:12:12;3.97;;;1.87;;
4244;SDS011;2136;48.502;9.194;2023-03-16T14:14:40;1.90;;;1.80;;
4244;SDS011;2136;48.502;9.194;2023-03-16T14:17:09;2.33;;;2.13;;
4244;SDS011;2136;48.502;9.194;2023-03-16T14:19:39;6.00;;;2.50;;
4244;SDS011;2136;48.502;9.194;2023-03-16T14:22:11;2.70;;;1.90;;
4244;SDS011;2136;48.502;9.194;2023-03-16T14:24:39;4.73;;;2.27;;
4244;SDS011;2136;48.502;9.194;2023-03-16T14:27:21;2.30;;;2.10;;
4244;SDS011;2136;48.502;9.194;2023-03-16T14:29:53;4.37;;;2.40;;
4244;SDS011;2136;48.502;9.194;2023-03-16T14:32:26;2.27;;;2.13;;
4244;SDS011;2136;48.502;9.194;2023-03-16T14:35:10;2.80;;;2.60;;
4244;SDS011;2136;48.502;9.194;2023-03-16T14:37:40;3.40;;;2.67;;
4244;SDS011;2136;48.502;9.194;2023-03-16T14:40:20;2.77;;;2.07;;
4244;SDS011;2136;48.502;9.194;2023-03-16T14:42:54;2.13;;;2.03;;
4244;SDS011;2136;48.502;9.194;2023-03-16T14:45:25;2.73;;;2.30;;
4244;SDS011;2136;48.502;9.194;2023-03-16T14:47:59;3.27;;;2.63;;
4244;SDS011;2136;48.502;9.194;2023-03-16T14:50:28;2.00;;;1.90;;
4244;SDS011;2136;48.502;9.194;2023-03-16T14:52:56;2.23;;;2.07;;
4244;SDS011;2136;48.502;9.194;2023-03-16T14:55:23;2.50;;;2.20;;
4244;SDS011;2136;48.502;9.194;2023-03-16T14:57:50;7.80;;;2.40;;
4244;SDS011;2136;48.502;9.194;2023-03-16T15:00:19;4.73;;;3.60;;
4244;SDS011;2136;48.502;9.194;2023-03-16T15:02:50;3.37;;;2.63;;
4244;SDS011;2136;48.502;9.194;2023-03-16T15:05:31;4.10;;;2.57;;
4244;SDS011;2136;48.502;9.194;2023-03-16T15:08:01;6.93;;;2.60;;
4244;SDS011;2136;48.502;9.194;2023-03-16T15:10:29;5.57;;;2.90;;
4244;SDS011;2136;48.502;9.194;2023-03-16T15:13:00;3.43;;;3.13;;
4244;SDS011;2136;48.502;9.194;2023-03-16T15:15:38;2.90;;;2.60;;
4244;SDS011;2136;48.502;9.194;2023-03-16T15:18:06;4.20;;;2.50;;
4244;SDS011;2136;48.502;9.194;2023-03-16T15:20:35;3.10;;;2.80;;
4244;SDS011;2136;48.502;9.194;2023-03-16T15:23:07;2.60;;;2.40;;
4244;SDS011;2136;48.502;9.194;2023-03-16T15:25:38;3.10;;;2.87;;
4244;SDS011;2136;48.502;9.194;2023-03-16T15:28:10;4.40;;;3.27;;
4244;SDS011;2136;48.502;9.194;2023-03-16T15:30:41;4.83;;;3.03;;
4244;SDS011;2136;48.502;9.194;2023-03-16T15:33:09;3.90;;;3.60;;
4244;SDS011;2136;48.502;9.194;2023-03-16T15:35:36;4.10;;;3.53;;